Terminal Aerodrome Forecast
Issued by NWS Shreveport, LA

Current Version | Previous Version | Text Only | Print | Product List | Glossary On
Versions: 1 2 3 4 5 6 7 8 9 10 11 12 13 14 15 16
879
FTUS44 KSHV 091720
TAFELD
TAF
KELD 091720Z 0918/1018 04006KT P6SM FEW080
      TEMPO 1000/1004 BKN080
     FM100400 00000KT P6SM BKN080
     FM101500 08005KT P6SM SCT080=

USA.gov is the U.S. government's official web portal to all federal, state and local government web resources and services.